Time;durP1;ratioP1;P1;durP2;ratioP2;P2;SDS_P1;SDS_P2;PMS_P1;PMS_P2;Temp;Humidity;BMP_temperature;BMP_pressure;BME280_temperature;BME280_humidity;BME280_pressure;Samples;Min_cycle;Max_cycle;Signal;HPM_P1;HPM_P2
2023/04/07 00:02:24;;;;;;;6.95;2.10;;;;;;;6.10;100.00;100845.69;5029584;28;20029;-80
2023/04/07 00:04:50;;;;;;;11.23;1.90;;;;;;;6.07;100.00;100850.84;5019646;28;20036;-80
2023/04/07 00:07:15;;;;;;;6.45;1.50;;;;;;;6.02;100.00;100840.59;5022205;28;20032;-80
2023/04/07 00:09:41;;;;;;;7.82;1.77;;;;;;;5.99;100.00;100850.22;5014928;28;20037;-79
2023/04/07 00:12:06;;;;;;;9.75;1.92;;;;;;;5.98;100.00;100851.28;5050375;28;20040;-80
2023/04/07 00:14:32;;;;;;;7.30;1.80;;;;;;;5.93;100.00;100845.69;5018057;28;20037;-80
2023/04/07 00:16:57;;;;;;;10.20;2.20;;;;;;;5.92;100.00;100845.94;5034198;28;20048;-80
2023/04/07 00:19:23;;;;;;;7.57;1.67;;;;;;;5.89;100.00;100850.03;5001244;28;20057;-79
2023/04/07 00:21:48;;;;;;;5.53;1.73;;;;;;;5.86;100.00;100845.03;4985288;28;20037;-80
2023/04/07 00:24:14;;;;;;;9.45;2.00;;;;;;;5.84;100.00;100841.69;5001418;28;20037;-80
2023/04/07 00:26:39;;;;;;;8.70;2.40;;;;;;;5.83;100.00;100845.56;5017266;28;20466;-80
2023/04/07 00:29:05;;;;;;;6.63;1.80;;;;;;;5.78;100.00;100842.72;5015494;28;20091;-80
2023/04/07 00:31:30;;;;;;;6.97;1.85;;;;;;;5.75;100.00;100835.78;5025965;28;20032;-80
2023/04/07 00:33:56;;;;;;;7.07;1.75;;;;;;;5.72;100.00;100835.47;5020623;28;20037;-80
2023/04/07 00:36:22;;;;;;;9.45;2.05;;;;;;;5.67;100.00;100830.72;5033720;28;20026;-80
2023/04/07 00:38:47;;;;;;;8.07;1.27;;;;;;;5.67;100.00;100838.16;4997898;28;20022;-80
2023/04/07 00:41:13;;;;;;;8.18;1.67;;;;;;;5.60;100.00;100827.31;5043671;28;20036;-80
2023/04/07 00:43:38;;;;;;;7.97;1.88;;;;;;;5.59;100.00;100834.72;5014131;28;20034;-80
2023/04/07 00:46:04;;;;;;;6.65;1.52;;;;;;;5.55;100.00;100828.06;5029474;28;20040;-80
2023/04/07 00:48:30;;;;;;;8.13;1.77;;;;;;;5.54;100.00;100822.78;5014219;28;20096;-80
2023/04/07 00:50:55;;;;;;;11.43;1.63;;;;;;;5.53;100.00;100816.47;5027210;28;20041;-81
2023/04/07 00:53:21;;;;;;;7.20;1.25;;;;;;;5.56;100.00;100818.69;4986083;28;20036;-80
2023/04/07 00:55:46;;;;;;;9.02;1.83;;;;;;;5.50;100.00;100814.22;4989042;28;20037;-80
2023/04/07 00:58:12;;;;;;;9.20;1.40;;;;;;;5.48;100.00;100816.38;4985516;28;20037;-80
2023/04/07 01:00:42;;;;;;;11.80;1.60;;;;;;;5.49;100.00;100822.72;5017564;28;20025;-80
2023/04/07 01:03:19;;;;;;;6.35;1.55;;;;;;;5.47;100.00;100822.97;5033634;28;20101;-80
2023/04/07 01:05:57;;;;;;;7.15;1.70;;;;;;;5.44;100.00;100819.91;5016797;28;20140;-80
2023/04/07 01:08:28;;;;;;;6.88;1.40;;;;;;;5.44;100.00;100814.41;5033867;28;20045;-80
2023/04/07 01:11:07;;;;;;;7.32;1.95;;;;;;;5.41;100.00;100820.41;5001308;28;20546;-81
2023/04/07 01:13:47;;;;;;;5.18;1.52;;;;;;;5.39;100.00;100820.66;5017976;28;20048;-80
2023/04/07 01:16:16;;;;;;;9.68;1.77;;;;;;;5.35;100.00;100822.25;4997763;28;20030;-81
2023/04/07 01:18:41;;;;;;;7.10;1.45;;;;;;;5.36;100.00;100823.91;5032462;28;20029;-81
2023/04/07 01:21:10;;;;;;;10.77;1.90;;;;;;;5.33;100.00;100818.91;5002060;28;20069;-80
2023/04/07 01:23:52;;;;;;;7.68;1.73;;;;;;;5.34;100.00;100826.09;5000902;28;20049;-80
2023/04/07 01:26:22;;;;;;;6.65;1.63;;;;;;;5.31;100.00;100823.84;5050084;28;20514;-80
2023/04/07 01:28:56;;;;;;;7.68;1.30;;;;;;;5.29;100.00;100829.59;5000397;28;20040;-81
2023/04/07 01:31:22;;;;;;;6.95;1.70;;;;;;;5.26;100.00;100832.84;5033416;28;20152;-81
2023/04/07 01:33:47;;;;;;;10.10;1.80;;;;;;;5.23;100.00;100827.84;5000671;28;20030;-80
2023/04/07 01:36:13;;;;;;;5.85;1.50;;;;;;;5.23;100.00;100819.56;5023398;28;20017;-80
2023/04/07 01:38:38;;;;;;;6.60;1.55;;;;;;;5.21;100.00;100826.41;4998101;28;20044;-81
2023/04/07 01:41:04;;;;;;;7.28;1.40;;;;;;;5.23;100.00;100829.75;5034078;28;20083;-80
2023/04/07 01:43:30;;;;;;;8.63;1.50;;;;;;;5.19;100.00;100834.94;5023735;28;20029;-80
2023/04/07 01:45:55;;;;;;;9.38;1.40;;;;;;;5.20;100.00;100827.50;5007206;28;20036;-80
2023/04/07 01:48:21;;;;;;;7.25;1.48;;;;;;;5.19;100.00;100826.69;5020558;28;20041;-80
2023/04/07 01:50:46;;;;;;;6.07;1.52;;;;;;;5.14;100.00;100827.41;5004081;28;20037;-81
2023/04/07 01:53:12;;;;;;;6.65;1.40;;;;;;;5.13;100.00;100835.94;4999501;28;20398;-80
2023/04/07 01:55:37;;;;;;;3.55;1.15;;;;;;;5.09;100.00;100838.34;5020721;28;20033;-80
2023/04/07 01:58:05;;;;;;;9.77;1.52;;;;;;;5.11;100.00;100847.19;5012615;28;20030;-81
2023/04/07 02:00:30;;;;;;;8.05;1.80;;;;;;;5.09;100.00;100845.78;4984958;28;20030;-81
2023/04/07 02:02:57;;;;;;;8.70;1.50;;;;;;;5.08;100.00;100847.69;5019943;28;20029;-80
2023/04/07 02:05:23;;;;;;;12.13;1.90;;;;;;;5.05;100.00;100842.69;5003707;28;20025;-80
2023/04/07 02:07:53;;;;;;;12.40;2.15;;;;;;;5.02;100.00;100845.94;5036288;28;20033;-80
2023/04/07 02:10:20;;;;;;;10.88;2.20;;;;;;;4.99;100.00;100846.44;5033389;28;20029;-80
2023/04/07 02:12:46;;;;;;;8.68;2.20;;;;;;;5.00;100.00;100842.59;5036494;28;20037;-80
2023/04/07 02:15:11;;;;;;;7.68;1.73;;;;;;;4.99;100.00;100851.97;5003841;28;20036;-80
2023/04/07 02:17:38;;;;;;;7.38;1.67;;;;;;;4.99;100.00;100846.44;5016962;28;20021;-80
2023/04/07 02:20:05;;;;;;;7.88;1.77;;;;;;;5.00;100.00;100839.84;5047314;28;20021;-80
2023/04/07 02:22:32;;;;;;;9.35;1.77;;;;;;;4.99;100.00;100835.44;5003689;28;20060;-80
2023/04/07 02:24:57;;;;;;;6.47;1.25;;;;;;;4.99;100.00;100834.63;5002567;28;20114;-80
2023/04/07 02:27:22;;;;;;;8.05;1.92;;;;;;;5.01;100.00;100843.44;5016772;28;20030;-81
2023/04/07 02:29:48;;;;;;;9.73;1.70;;;;;;;5.01;100.00;100843.44;5048192;28;20574;-80
2023/04/07 02:32:13;;;;;;;6.18;1.75;;;;;;;5.03;100.00;100836.59;5002542;28;20029;-81
2023/04/07 02:34:39;;;;;;;7.25;1.65;;;;;;;5.03;100.00;100842.09;5032585;28;20033;-81
2023/04/07 02:37:05;;;;;;;7.30;1.77;;;;;;;5.05;100.00;100845.44;5035548;28;20029;-80
2023/04/07 02:39:30;;;;;;;8.38;1.73;;;;;;;5.02;100.00;100839.63;5052676;28;20036;-80
2023/04/07 02:41:56;;;;;;;8.07;1.98;;;;;;;5.06;100.00;100841.59;5002781;28;20037;-81
2023/04/07 02:44:21;;;;;;;5.22;1.67;;;;;;;5.02;100.00;100850.63;5020132;28;20029;-81
2023/04/07 02:46:47;;;;;;;6.80;1.30;;;;;;;5.00;100.00;100839.84;5003176;28;20033;-80
2023/04/07 02:49:12;;;;;;;6.80;1.95;;;;;;;4.98;100.00;100839.25;5002580;28;20045;-81
2023/04/07 02:51:38;;;;;;;6.50;1.67;;;;;;;4.98;100.00;100839.25;5019439;28;20049;-81
2023/04/07 02:54:03;;;;;;;7.80;2.00;;;;;;;4.93;100.00;100830.91;5052451;28;20509;-80
2023/04/07 02:56:29;;;;;;;9.18;1.80;;;;;;;4.92;100.00;100829.25;5017867;28;20489;-81
2023/04/07 02:58:55;;;;;;;7.43;1.33;;;;;;;4.94;100.00;100827.09;4997461;28;20442;-81
2023/04/07 03:01:20;;;;;;;6.93;1.67;;;;;;;4.89;100.00;100824.25;5034411;28;20029;-80
2023/04/07 03:03:46;;;;;;;6.80;1.67;;;;;;;4.91;100.00;100822.09;5016074;28;20025;-80
2023/04/07 03:06:12;;;;;;;7.78;1.83;;;;;;;4.88;100.00;100826.16;5030089;28;20029;-80
2023/04/07 03:08:38;;;;;;;7.22;1.50;;;;;;;4.85;100.00;100823.09;5035771;28;20026;-81
2023/04/07 03:11:03;;;;;;;8.50;1.70;;;;;;;4.87;100.00;100829.16;5035962;28;20033;-80
2023/04/07 03:13:29;;;;;;;6.85;1.58;;;;;;;4.86;100.00;100827.50;5002635;28;20040;-80
2023/04/07 03:15:55;;;;;;;6.35;1.50;;;;;;;4.84;100.00;100829.66;5032390;28;20417;-81
2023/04/07 03:18:21;;;;;;;6.85;1.58;;;;;;;4.81;100.00;100821.91;5010738;28;20116;-80
2023/04/07 03:20:47;;;;;;;6.57;2.22;;;;;;;4.76;100.00;100824.56;5016485;28;20057;-80
2023/04/07 03:23:13;;;;;;;5.40;1.60;;;;;;;4.78;100.00;100816.91;5017702;28;20584;-80
2023/04/07 03:25:38;;;;;;;7.63;1.77;;;;;;;4.78;100.00;100825.16;4999713;28;20034;-81
2023/04/07 03:28:04;;;;;;;7.68;1.85;;;;;;;4.73;100.00;100823.13;5016279;28;20037;-81
2023/04/07 03:30:29;;;;;;;11.88;2.15;;;;;;;4.73;100.00;100814.88;5018969;28;20037;-80
2023/04/07 03:32:55;;;;;;;9.75;2.17;;;;;;;4.72;100.00;100813.22;4991064;28;20034;-81
2023/04/07 03:35:20;;;;;;;9.32;1.98;;;;;;;4.68;100.00;100812.88;5050416;28;20094;-80
2023/04/07 03:37:46;;;;;;;5.75;1.60;;;;;;;4.67;100.00;100811.19;5035307;28;20030;-80
2023/04/07 03:40:11;;;;;;;10.77;1.98;;;;;;;4.68;100.00;100812.88;4999193;28;20486;-80
2023/04/07 03:42:37;;;;;;;9.02;1.83;;;;;;;4.68;100.00;100818.38;5022747;28;20049;-81
2023/04/07 03:45:02;;;;;;;7.82;2.10;;;;;;;4.65;100.00;100818.03;5014068;28;20026;-81
2023/04/07 03:47:28;;;;;;;6.57;1.80;;;;;;;4.63;100.00;100810.03;4995483;28;20667;-81
2023/04/07 03:49:53;;;;;;;10.30;1.90;;;;;;;4.58;100.00;100809.94;5062590;28;20054;-81
2023/04/07 03:52:19;;;;;;;7.32;2.20;;;;;;;4.62;100.00;100802.03;5023590;28;20041;-81
2023/04/07 03:54:44;;;;;;;5.82;1.83;;;;;;;4.63;100.00;100803.72;4999355;28;20040;-81
2023/04/07 03:57:10;;;;;;;9.50;2.47;;;;;;;4.59;100.00;100800.59;5006983;28;20038;-81
2023/04/07 03:59:37;;;;;;;11.52;2.58;;;;;;;4.60;100.00;100807.78;5001286;28;20068;-81
2023/04/07 04:02:03;;;;;;;5.90;2.38;;;;;;;4.59;100.00;100802.53;4984756;28;20085;-81
2023/04/07 04:04:28;;;;;;;7.65;2.75;;;;;;;4.58;100.00;100796.19;5034257;28;20033;-81
2023/04/07 04:06:54;;;;;;;6.15;2.50;;;;;;;4.57;100.00;100800.03;5018133;28;20060;-80
2023/04/07 04:09:19;;;;;;;10.57;2.60;;;;;;;4.55;100.00;100796.69;5018062;28;20029;-80
2023/04/07 04:11:45;;;;;;;10.07;2.35;;;;;;;4.54;100.00;100799.66;5021805;28;20482;-81
2023/04/07 04:14:11;;;;;;;6.20;1.90;;;;;;;4.56;100.00;100806.59;5003920;28;20033;-81
2023/04/07 04:16:36;;;;;;;5.85;2.40;;;;;;;4.55;100.00;100802.19;4985895;28;20025;-80
2023/04/07 04:19:02;;;;;;;4.95;1.70;;;;;;;4.54;100.00;100795.03;5030965;28;20557;-81
2023/04/07 04:21:27;;;;;;;5.10;2.00;;;;;;;4.54;100.00;100795.03;5031033;28;20591;-81
2023/04/07 04:23:53;;;;;;;4.82;2.00;;;;;;;4.60;100.00;100799.53;5017881;28;20032;-81
2023/04/07 04:26:19;;;;;;;5.20;1.60;;;;;;;4.58;100.00;100806.38;5017960;28;20402;-81
2023/04/07 04:28:44;;;;;;;4.07;1.40;;;;;;;4.60;100.00;100798.69;4986327;28;20111;-82
2023/04/07 04:31:10;;;;;;;4.95;1.60;;;;;;;4.59;100.00;100805.25;4995920;28;20046;-81
2023/04/07 04:33:35;;;;;;;3.67;1.58;;;;;;;4.63;100.00;100793.53;5033312;28;20056;-80
2023/04/07 04:36:01;;;;;;;2.53;1.13;;;;;;;4.61;100.00;100803.94;5003877;28;20048;-81
2023/04/07 04:38:26;;;;;;;4.35;1.67;;;;;;;4.64;100.00;100800.69;5004279;28;20071;-81
2023/04/07 04:40:52;;;;;;;2.67;1.20;;;;;;;4.67;100.00;100802.13;4985238;28;20029;-81
2023/04/07 04:43:17;;;;;;;1.60;1.20;;;;;;;4.67;100.00;100805.69;4997998;28;20041;-80
2023/04/07 04:45:43;;;;;;;2.33;1.27;;;;;;;4.64;100.00;100803.44;5006937;28;20037;-81
2023/04/07 04:48:09;;;;;;;3.67;1.10;;;;;;;4.67;100.00;100796.63;5043550;28;20026;-81
2023/04/07 04:50:35;;;;;;;2.63;1.10;;;;;;;4.68;100.00;100793.63;5005252;28;20037;-81
2023/04/07 04:53:01;;;;;;;1.55;0.98;;;;;;;4.67;100.00;100804.88;5031414;28;20036;-82
2023/04/07 04:55:26;;;;;;;2.00;1.02;;;;;;;4.71;100.00;100806.06;5034142;28;20234;-81
2023/04/07 04:57:52;;;;;;;1.33;1.00;;;;;;;4.72;100.00;100801.38;5005322;28;20042;-81
2023/04/07 05:00:19;;;;;;;1.42;1.00;;;;;;;4.68;100.00;100804.63;5016144;28;20042;-81
2023/04/07 05:02:45;;;;;;;1.20;0.80;;;;;;;4.69;100.00;100809.03;5032092;28;20026;-81
2023/04/07 05:05:11;;;;;;;1.38;0.95;;;;;;;4.69;100.00;100806.28;5050181;28;20029;-81
2023/04/07 05:07:37;;;;;;;2.10;1.00;;;;;;;4.73;100.00;100800.28;4984999;28;20034;-81
2023/04/07 05:10:03;;;;;;;1.20;1.00;;;;;;;4.72;100.00;100802.22;5016385;28;20029;-81
2023/04/07 05:12:29;;;;;;;1.95;0.90;;;;;;;4.69;100.00;100806.28;5001359;28;20425;-81
2023/04/07 05:14:54;;;;;;;1.38;0.90;;;;;;;4.72;100.00;100807.72;4989043;28;20041;-81
2023/04/07 05:17:20;;;;;;;1.55;0.88;;;;;;;4.70;100.00;100810.69;5004812;28;20033;-81
2023/04/07 05:19:45;;;;;;;1.10;0.90;;;;;;;4.67;100.00;100805.69;5004654;28;20021;-81
2023/04/07 05:22:11;;;;;;;1.45;0.80;;;;;;;4.65;100.00;100805.13;5001677;28;20586;-81
2023/04/07 05:24:36;;;;;;;1.67;0.85;;;;;;;4.67;100.00;100810.38;5009916;28;20036;-81
2023/04/07 05:27:01;;;;;;;1.42;0.82;;;;;;;4.67;100.00;100815.88;5034372;28;20045;-81
2023/04/07 05:29:27;;;;;;;1.20;0.90;;;;;;;4.64;100.00;100810.88;5035597;28;20026;-81
2023/04/07 05:31:52;;;;;;;0.77;0.60;;;;;;;4.63;100.00;100810.03;5032681;28;20022;-81
2023/04/07 05:34:18;;;;;;;1.10;1.00;;;;;;;4.64;100.00;100822.69;5001091;28;20030;-81
2023/04/07 05:36:43;;;;;;;1.45;0.88;;;;;;;4.67;100.00;100816.69;4987926;28;20036;-81
2023/04/07 05:39:09;;;;;;;0.70;0.70;;;;;;;4.67;100.00;100818.63;5033854;28;20029;-81
2023/04/07 05:41:35;;;;;;;1.48;1.00;;;;;;;4.68;100.00;100823.91;5033620;28;20025;-81
2023/04/07 05:44:00;;;;;;;1.00;0.80;;;;;;;4.68;100.00;100826.66;5005001;28;20402;-81
2023/04/07 05:46:26;;;;;;;1.02;0.70;;;;;;;4.72;100.00;100817.91;5037296;28;20021;-81
2023/04/07 05:48:52;;;;;;;1.02;0.77;;;;;;;4.69;100.00;100827.47;5017185;28;20042;-81
2023/04/07 05:51:17;;;;;;;1.15;1.00;;;;;;;4.63;100.00;100831.22;5036550;28;20033;-81
2023/04/07 05:53:42;;;;;;;1.67;0.82;;;;;;;4.63;100.00;100832.03;5012803;28;20068;-81
2023/04/07 05:56:08;;;;;;;1.00;0.90;;;;;;;4.63;100.00;100825.72;5020795;28;20044;-81
2023/04/07 05:58:33;;;;;;;1.05;0.88;;;;;;;4.62;100.00;100827.59;5004506;28;20033;-82
2023/04/07 06:00:59;;;;;;;1.00;0.70;;;;;;;4.65;100.00;100829.91;5037152;28;20037;-81
2023/04/07 06:03:24;;;;;;;0.90;0.80;;;;;;;4.67;100.00;100833.22;5036532;28;20042;-81
2023/04/07 06:05:50;;;;;;;0.77;0.70;;;;;;;4.66;100.00;100837.06;5036677;28;20084;-81
2023/04/07 06:08:16;;;;;;;0.80;0.75;;;;;;;4.67;100.00;100838.72;5004461;28;20025;-81
2023/04/07 06:10:43;;;;;;;0.80;0.70;;;;;;;4.70;100.00;100834.63;5034688;28;20060;-81
2023/04/07 06:13:08;;;;;;;0.75;0.70;;;;;;;4.74;100.00;100838.56;5016670;28;20060;-81
2023/04/07 06:15:33;;;;;;;0.75;0.63;;;;;;;4.77;100.00;100837.25;5002291;28;20022;-81
2023/04/07 06:17:59;;;;;;;0.98;0.70;;;;;;;4.75;100.00;100839.41;5047001;28;20038;-81
2023/04/07 06:20:26;;;;;;;0.75;0.60;;;;;;;4.80;100.00;100843.09;5033735;28;20026;-81
2023/04/07 06:22:52;;;;;;;0.60;0.60;;;;;;;4.84;100.00;100838.75;5036571;28;20064;-82
2023/04/07 06:25:18;;;;;;;0.85;0.77;;;;;;;4.87;100.00;100853.94;5052154;28;20025;-82
2023/04/07 06:27:43;;;;;;;1.02;0.93;;;;;;;4.90;100.00;100845.16;5036348;28;20038;-81
2023/04/07 06:30:09;;;;;;;1.50;0.90;;;;;;;4.91;100.00;100849.59;5035662;28;20537;-81
2023/04/07 06:32:35;;;;;;;0.80;0.80;;;;;;;4.93;100.00;100859.28;5003645;28;20037;-81
2023/04/07 06:35:00;;;;;;;1.38;0.70;;;;;;;4.96;100.00;100851.59;5003485;28;20044;-81
2023/04/07 06:37:26;;;;;;;1.02;0.80;;;;;;;5.01;100.00;100859.94;5016871;28;20474;-81
2023/04/07 06:39:51;;;;;;;0.80;0.80;;;;;;;5.06;100.00;100852.63;4987666;28;20030;-81
2023/04/07 06:42:17;;;;;;;0.80;0.80;;;;;;;5.08;100.00;100861.47;5007079;28;20042;-81
2023/04/07 06:44:42;;;;;;;0.98;0.88;;;;;;;5.14;100.00;100862.38;5003039;28;20022;-81
2023/04/07 06:47:08;;;;;;;1.33;0.80;;;;;;;5.18;100.00;100869.06;5016770;28;20038;-81
2023/04/07 06:49:34;;;;;;;1.10;1.00;;;;;;;5.22;100.00;100866.66;5017970;28;20046;-81
2023/04/07 06:51:59;;;;;;;1.00;0.80;;;;;;;5.26;100.00;100868.63;5027390;28;20057;-81
2023/04/07 06:54:25;;;;;;;1.63;1.00;;;;;;;5.32;100.00;100877.81;5031536;28;20026;-81
2023/04/07 06:56:50;;;;;;;1.27;0.80;;;;;;;5.36;100.00;100873.50;4983559;28;20037;-82
2023/04/07 06:59:16;;;;;;;1.17;0.90;;;;;;;5.43;100.00;100876.06;5030791;28;20034;-82
2023/04/07 07:01:42;;;;;;;1.73;1.13;;;;;;;5.46;100.00;100870.91;5035451;28;20038;-81
2023/04/07 07:04:08;;;;;;;1.40;1.27;;;;;;;5.52;100.00;100864.41;5018118;28;20482;-81
2023/04/07 07:06:34;;;;;;;1.38;1.05;;;;;;;5.58;100.00;100868.88;5037216;28;20034;-81
2023/04/07 07:08:59;;;;;;;1.73;1.38;;;;;;;5.64;100.00;100869.81;4993134;28;20038;-82
2023/04/07 07:11:26;;;;;;;1.70;1.38;;;;;;;5.71;100.00;100875.13;4999722;28;20113;-83
2023/04/07 07:13:51;;;;;;;1.77;1.30;;;;;;;5.77;100.00;100874.97;5063922;28;20033;-82
2023/04/07 07:16:16;;;;;;;3.10;1.38;;;;;;;5.83;100.00;100878.63;5035498;28;20497;-83
2023/04/07 07:18:42;;;;;;;1.42;1.20;;;;;;;5.92;100.00;100884.53;4985966;28;20037;-82
2023/04/07 07:21:07;;;;;;;2.15;1.70;;;;;;;5.96;100.00;100881.06;5002606;28;20030;-82
2023/04/07 07:23:33;;;;;;;4.43;1.52;;;;;;;5.99;100.00;100880.53;5002443;28;20025;-83
2023/04/07 07:25:59;;;;;;;2.63;1.40;;;;;;;6.08;100.00;100880.09;5035522;28;20112;-82
2023/04/07 07:28:25;;;;;;;6.50;2.85;;;;;;;6.14;100.00;100885.44;5000853;28;20022;-83
2023/04/07 07:30:50;;;;;;;5.72;3.45;;;;;;;6.21;100.00;100883.31;4996076;28;20033;-82
2023/04/07 07:33:16;;;;;;;4.38;2.97;;;;;;;6.30;100.00;100886.47;5019540;28;20046;-83
2023/04/07 07:35:41;;;;;;;3.47;2.72;;;;;;;6.37;100.00;100884.34;5017511;28;20037;-83
2023/04/07 07:38:07;;;;;;;5.18;3.20;;;;;;;6.45;100.00;100886.63;5002777;28;20104;-83
2023/04/07 07:40:32;;;;;;;4.05;2.97;;;;;;;6.55;100.00;100887.88;5017528;28;20034;-82
2023/04/07 07:42:59;;;;;;;4.78;2.70;;;;;;;6.60;100.00;100887.91;4993328;28;20033;-82
2023/04/07 07:45:24;;;;;;;3.83;2.60;;;;;;;6.66;100.00;100892.41;5018177;28;20116;-82
2023/04/07 07:47:50;;;;;;;3.97;2.30;;;;;;;6.72;100.00;100889.44;5025054;28;20037;-82
2023/04/07 07:50:16;;;;;;;4.45;2.42;;;;;;;6.79;100.00;100886.47;5034685;28;20038;-82
2023/04/07 07:52:42;;;;;;;3.40;1.92;;;;;;;6.86;100.00;100892.63;5002019;28;20083;-82
2023/04/07 07:55:08;;;;;;;2.70;2.10;;;;;;;6.92;100.00;100891.59;4999152;28;20117;-82
2023/04/07 07:57:33;;;;;;;2.90;2.30;;;;;;;6.96;100.00;100891.06;5023721;28;20038;-81
2023/04/07 07:59:59;;;;;;;7.88;2.92;;;;;;;7.02;100.00;100898.28;5016323;28;20033;-82
2023/04/07 08:02:29;;;;;;;10.43;3.40;;;;;;;7.03;100.00;100897.22;5048514;28;20087;-83
2023/04/07 08:04:55;;;;;;;3.80;2.90;;;;;;;7.11;100.00;100894.00;5003171;28;20021;-82
2023/04/07 08:07:21;;;;;;;5.15;3.10;;;;;;;7.16;100.00;100897.63;5000178;28;20136;-82
2023/04/07 08:09:47;;;;;;;2.95;2.58;;;;;;;7.22;100.00;100905.97;5034336;28;20029;-82
2023/04/07 08:12:12;;;;;;;9.88;4.15;;;;;;;7.23;100.00;100893.81;4985424;28;20030;-82
2023/04/07 08:14:38;;;;;;;11.82;4.63;;;;;;;7.25;100.00;100897.97;4998277;28;20034;-82
2023/04/07 08:17:03;;;;;;;6.47;4.43;;;;;;;7.31;100.00;100890.56;5013576;28;20324;-82
2023/04/07 08:19:29;;;;;;;5.07;3.85;;;;;;;7.35;100.00;100894.47;5017761;28;20144;-82
2023/04/07 08:21:54;;;;;;;9.65;4.75;;;;;;;7.38;100.00;100900.31;4986939;28;20022;-81
2023/04/07 08:24:20;;;;;;;8.70;5.18;;;;;;;7.49;100.00;100894.84;4997315;28;20030;-82
2023/04/07 08:26:45;;;;;;;10.45;5.35;;;;;;;7.60;100.00;100897.47;5029027;28;20029;-82
2023/04/07 08:29:11;;;;;;;7.55;4.85;;;;;;;7.77;100.00;100904.75;4998183;28;20033;-82
2023/04/07 08:31:36;;;;;;;7.07;4.25;;;;;;;7.92;100.00;100898.50;5031081;28;20033;-81
2023/04/07 08:34:02;;;;;;;8.52;4.60;;;;;;;8.10;100.00;100897.22;5013372;28;20041;-82
2023/04/07 08:36:28;;;;;;;6.25;4.72;;;;;;;8.28;100.00;100900.34;5056200;28;20044;-82
2023/04/07 08:38:54;;;;;;;8.02;5.40;;;;;;;8.48;100.00;100904.34;4990170;28;20021;-83
2023/04/07 08:41:32;;;;;;;8.10;5.28;;;;;;;8.68;100.00;100907.19;5001306;28;20032;-82
2023/04/07 08:43:57;;;;;;;11.55;5.07;;;;;;;8.91;100.00;100905.03;5014244;28;20038;-83
2023/04/07 08:46:23;;;;;;;5.43;4.30;;;;;;;9.14;100.00;100904.53;5036123;28;20042;-83
2023/04/07 08:48:50;;;;;;;9.20;5.00;;;;;;;9.39;100.00;100895.41;5003256;28;20057;-82
2023/04/07 08:51:17;;;;;;;7.35;4.80;;;;;;;9.61;100.00;100895.13;4984706;28;20657;-83
2023/04/07 08:53:56;;;;;;;;;;;;;;;;;;;;;
2023/04/07 08:56:22;;;;;;;10.57;5.70;;;;;;;10.10;100.00;100887.28;5019818;28;20096;-82
2023/04/07 08:58:48;;;;;;;9.85;5.40;;;;;;;10.27;100.00;100885.84;5034985;28;20042;-82
2023/04/07 09:01:14;;;;;;;11.52;5.70;;;;;;;10.46;100.00;100879.69;5028777;28;20030;-82
2023/04/07 09:03:41;;;;;;;9.40;5.75;;;;;;;10.57;100.00;100884.09;5022843;28;20050;-82
2023/04/07 09:06:06;;;;;;;15.32;6.82;;;;;;;10.72;100.00;100877.59;5033168;28;20056;-82
2023/04/07 09:08:32;;;;;;;9.75;5.68;;;;;;;10.89;100.00;100888.34;5030441;28;20022;-83
2023/04/07 09:10:57;;;;;;;10.52;5.78;;;;;;;11.07;100.00;100884.09;5008636;28;20036;-82
2023/04/07 09:13:23;;;;;;;7.72;4.95;;;;;;;11.30;100.00;100882.53;5036846;28;20490;-82
2023/04/07 09:15:49;;;;;;;8.45;5.07;;;;;;;11.51;100.00;100888.75;5017217;28;20478;-82
2023/04/07 09:18:15;;;;;;;7.47;4.25;;;;;;;11.69;100.00;100888.03;5001099;28;20083;-83
2023/04/07 09:20:57;;;;;;;8.52;5.28;;;;;;;11.87;100.00;100892.06;5001043;28;20022;-83
2023/04/07 09:23:34;;;;;;;9.82;5.20;;;;;;;12.07;100.00;100891.84;5016177;28;20112;-83
2023/04/07 09:26:17;;;;;;;11.90;4.35;;;;;;;12.22;100.00;100890.84;5017037;28;20037;-83
2023/04/07 09:28:43;;;;;;;;;;;;;;;12.44;100.00;100895.06;5003707;28;20057;-83
2023/04/07 09:31:08;;;;;;;11.27;3.75;;;;;;;12.55;100.00;100902.16;5028950;28;19919;-82
2023/04/07 09:33:35;;;;;;;7.53;3.53;;;;;;;12.66;100.00;100898.13;5015418;28;20033;-82
2023/04/07 09:36:01;;;;;;;6.75;3.83;;;;;;;12.69;100.00;100905.88;5028109;28;20025;-82
2023/04/07 09:38:33;;;;;;;7.00;3.60;;;;;;;12.78;100.00;100896.84;5019269;28;20029;-83
2023/04/07 09:41:05;;;;;;;5.23;3.27;;;;;;;12.82;100.00;100906.28;5000397;28;20025;-82
2023/04/07 09:43:30;;;;;;;5.95;3.15;;;;;;;12.88;100.00;100908.69;5000682;28;20034;-83
2023/04/07 09:46:13;;;;;;;7.35;3.20;;;;;;;12.98;100.00;100904.91;5000659;28;20055;-83
2023/04/07 09:48:39;;;;;;;6.13;2.40;;;;;;;13.18;100.00;100914.97;5051164;28;20494;-82
2023/04/07 09:51:12;;;;;;;6.38;3.25;;;;;;;13.26;100.00;100919.91;5044957;28;20490;-83
2023/04/07 09:53:51;;;;;;;5.97;3.30;;;;;;;13.37;100.00;100912.19;4981230;28;20037;-83
2023/04/07 09:56:17;;;;;;;6.55;3.17;;;;;;;13.47;100.00;100916.78;5013861;28;20065;-83
2023/04/07 09:58:46;;;;;;;4.72;3.20;;;;;;;13.62;100.00;100916.50;5024926;28;20109;-83
2023/04/07 10:01:12;;;;;;;7.10;2.70;;;;;;;13.74;100.00;100927.22;5039718;28;20120;-81
2023/04/07 10:03:38;;;;;;;6.75;3.00;;;;;;;13.84;100.00;100921.44;5038515;28;20063;-81
2023/04/07 10:06:05;;;;;;;8.68;2.08;;;;;;;14.04;100.00;100915.50;5003538;28;20029;-82
2023/04/07 10:08:31;;;;;;;3.70;1.77;;;;;;;14.20;100.00;100923.59;5036717;28;20025;-81
2023/04/07 10:10:58;;;;;;;3.90;1.77;;;;;;;14.32;96.19;100929.53;5020491;28;20105;-81
2023/04/07 10:13:23;;;;;;;6.03;2.33;;;;;;;14.48;99.74;100919.66;5036522;28;20037;-81
2023/04/07 10:15:49;;;;;;;3.30;1.42;;;;;;;14.61;93.92;100917.22;5036663;28;20244;-81
2023/04/07 10:18:14;;;;;;;3.88;1.80;;;;;;;14.74;91.63;100916.41;5000388;28;20096;-82
2023/04/07 10:20:43;;;;;;;4.20;1.33;;;;;;;14.77;85.24;100915.78;5026841;28;20167;-81
2023/04/07 10:23:15;;;;;;;4.68;1.40;;;;;;;14.98;83.90;100916.13;5001096;28;20033;-82
2023/04/07 10:25:41;;;;;;;2.47;1.05;;;;;;;15.19;89.84;100914.53;5038008;28;20374;-82
2023/04/07 10:28:07;;;;;;;4.65;1.85;;;;;;;15.31;84.00;100918.75;5036724;28;20030;-81
2023/04/07 10:30:32;;;;;;;5.65;1.60;;;;;;;15.47;79.88;100916.44;5045380;28;20033;-77
2023/04/07 10:32:58;;;;;;;3.33;1.50;;;;;;;15.53;69.52;100912.34;5058121;28;20148;-80
2023/04/07 10:35:23;;;;;;;4.53;1.92;;;;;;;15.53;68.53;100915.16;5017163;28;20038;-79
2023/04/07 10:38:09;;;;;;;4.78;1.50;;;;;;;15.54;66.64;100905.59;5020103;28;20036;-79
2023/04/07 10:40:35;;;;;;;3.42;1.90;;;;;;;15.57;65.33;100903.00;5023274;28;20434;-79
2023/04/07 10:43:01;;;;;;;4.95;2.00;;;;;;;15.60;67.90;100907.97;4986224;28;20079;-79
2023/04/07 10:45:45;;;;;;;5.47;2.17;;;;;;;15.59;69.13;100902.66;5033245;28;20072;-79
2023/04/07 10:48:12;;;;;;;3.50;1.83;;;;;;;15.51;66.41;100903.44;5045854;28;20692;-79
2023/04/07 10:50:37;;;;;;;5.28;2.22;;;;;;;15.46;70.29;100909.16;5018984;28;20045;-80
2023/04/07 10:53:07;;;;;;;5.05;2.10;;;;;;;15.54;69.05;100902.78;5019343;28;20030;-79
2023/04/07 10:55:32;;;;;;;4.30;2.15;;;;;;;15.56;66.72;100903.31;5019712;28;20040;-79
2023/04/07 10:58:29;;;;;;;4.78;2.10;;;;;;;15.54;67.08;100905.59;5028184;28;20037;-80
2023/04/07 11:01:08;;;;;;;4.13;2.50;;;;;;;15.60;66.27;100901.50;5015649;28;20516;-79
2023/04/07 11:03:34;;;;;;;5.97;2.30;;;;;;;15.57;63.69;100891.81;5032026;28;20517;-82
2023/04/07 11:06:04;;;;;;;5.00;2.33;;;;;;;15.47;64.06;100888.44;5025946;28;20030;-79
2023/04/07 11:08:33;;;;;;;4.15;2.70;;;;;;;15.40;64.86;100898.06;5061146;28;20034;-79
2023/04/07 11:10:59;;;;;;;4.97;2.38;;;;;;;15.47;66.70;100891.22;5022384;28;20026;-79
2023/04/07 11:13:26;;;;;;;5.00;2.17;;;;;;;15.55;66.03;100890.47;5007492;28;20037;-80
2023/04/07 11:15:51;;;;;;;4.00;2.08;;;;;;;15.62;66.67;100882.44;5022833;28;20021;-79
2023/04/07 11:18:20;;;;;;;6.25;2.50;;;;;;;15.80;70.41;100883.41;5020384;28;20493;-79
2023/04/07 11:20:51;;;;;;;5.47;2.40;;;;;;;15.81;67.32;100871.06;4999309;28;20568;-79
2023/04/07 11:23:17;;;;;;;4.03;2.53;;;;;;;15.94;65.88;100880.53;5031835;28;20040;-79